Terminal Aerodrome Forecast
Issued by NWS

Home | Current Version | Previous Version | Text Only | Print | Product List | Glossary On
Versions: 1 2 3 4 5 6 7 8 9 10 11 12 13 14 15 16 17 18 19 20 21 22 23 24 25 26 27 28 29 30 31 32 33 34 35 36 37 38 39 40 41
000
FTUS46 KLOX 220128 AAA
TAFLAX
TAF AMD
KLAX 220128Z 2201/2306 26010KT P6SM VCSH FEW012 SCT025 BKN050
     FM220200 28008KT P6SM VCSH BKN025 BKN050
     FM220800 31009KT P6SM FEW007 SCT015
     FM221300 VRB03KT 6SM BR OVC015
     FM221900 27010KT P6SM SCT025 BKN050
     FM222200 27014G22KT P6SM FEW025 SCT050
     FM230100 35010KT P6SM FEW050=

USA.gov is the U.S. government's official web portal to all federal, state and local government web resources and services.